sensor_id;sensor_type;location;lat;lon;timestamp;P1;durP1;ratioP1;P2;durP2;ratioP2
44995;SDS011;30729;49.486;10.792;2023-08-06T00:02:13;4.87;;;2.43;;
44995;SDS011;30729;49.486;10.792;2023-08-06T00:04:39;3.57;;;2.10;;
44995;SDS011;30729;49.486;10.792;2023-08-06T00:07:04;3.75;;;2.20;;
44995;SDS011;30729;49.486;10.792;2023-08-06T00:09:29;3.95;;;2.17;;
44995;SDS011;30729;49.486;10.792;2023-08-06T00:11:54;5.40;;;2.27;;
44995;SDS011;30729;49.486;10.792;2023-08-06T00:14:19;5.60;;;2.20;;
44995;SDS011;30729;49.486;10.792;2023-08-06T00:16:45;4.13;;;2.13;;
44995;SDS011;30729;49.486;10.792;2023-08-06T00:19:10;4.00;;;2.00;;
44995;SDS011;30729;49.486;10.792;2023-08-06T00:21:35;5.13;;;2.55;;
44995;SDS011;30729;49.486;10.792;2023-08-06T00:24:00;3.28;;;2.00;;
44995;SDS011;30729;49.486;10.792;2023-08-06T00:26:26;5.03;;;2.40;;
44995;SDS011;30729;49.486;10.792;2023-08-06T00:28:51;7.65;;;2.42;;
44995;SDS011;30729;49.486;10.792;2023-08-06T00:31:16;4.75;;;2.40;;
44995;SDS011;30729;49.486;10.792;2023-08-06T00:33:41;7.75;;;2.78;;
44995;SDS011;30729;49.486;10.792;2023-08-06T00:36:06;4.47;;;2.30;;
44995;SDS011;30729;49.486;10.792;2023-08-06T00:38:32;4.45;;;2.40;;
44995;SDS011;30729;49.486;10.792;2023-08-06T00:40:57;4.57;;;2.45;;
44995;SDS011;30729;49.486;10.792;2023-08-06T00:43:22;4.72;;;2.30;;
44995;SDS011;30729;49.486;10.792;2023-08-06T00:45:47;5.05;;;2.20;;
44995;SDS011;30729;49.486;10.792;2023-08-06T00:48:12;3.77;;;2.10;;
44995;SDS011;30729;49.486;10.792;2023-08-06T00:50:37;4.00;;;2.25;;
44995;SDS011;30729;49.486;10.792;2023-08-06T00:53:03;3.23;;;1.70;;
44995;SDS011;30729;49.486;10.792;2023-08-06T00:55:28;4.35;;;2.20;;
44995;SDS011;30729;49.486;10.792;2023-08-06T00:57:54;3.88;;;2.03;;
44995;SDS011;30729;49.486;10.792;2023-08-06T01:00:21;4.38;;;1.92;;
44995;SDS011;30729;49.486;10.792;2023-08-06T01:02:48;5.00;;;2.35;;
44995;SDS011;30729;49.486;10.792;2023-08-06T01:05:13;4.90;;;2.03;;
44995;SDS011;30729;49.486;10.792;2023-08-06T01:10:33;4.57;;;2.10;;
44995;SDS011;30729;49.486;10.792;2023-08-06T01:13:15;5.07;;;2.13;;
44995;SDS011;30729;49.486;10.792;2023-08-06T01:15:43;4.00;;;1.95;;
44995;SDS011;30729;49.486;10.792;2023-08-06T01:18:09;3.72;;;1.92;;
44995;SDS011;30729;49.486;10.792;2023-08-06T01:20:35;3.88;;;2.20;;
44995;SDS011;30729;49.486;10.792;2023-08-06T01:23:00;5.57;;;2.20;;
44995;SDS011;30729;49.486;10.792;2023-08-06T01:25:27;5.10;;;2.27;;
44995;SDS011;30729;49.486;10.792;2023-08-06T01:27:55;4.22;;;1.92;;
44995;SDS011;30729;49.486;10.792;2023-08-06T01:30:25;4.85;;;2.10;;
44995;SDS011;30729;49.486;10.792;2023-08-06T01:32:53;4.50;;;2.60;;
44995;SDS011;30729;49.486;10.792;2023-08-06T01:35:19;6.65;;;2.28;;
44995;SDS011;30729;49.486;10.792;2023-08-06T01:37:44;3.87;;;2.10;;
44995;SDS011;30729;49.486;10.792;2023-08-06T01:40:11;3.80;;;2.03;;
44995;SDS011;30729;49.486;10.792;2023-08-06T01:42:37;8.02;;;2.78;;
44995;SDS011;30729;49.486;10.792;2023-08-06T01:45:02;5.40;;;2.42;;
44995;SDS011;30729;49.486;10.792;2023-08-06T01:47:27;3.97;;;2.03;;
44995;SDS011;30729;49.486;10.792;2023-08-06T01:49:52;4.97;;;2.22;;
44995;SDS011;30729;49.486;10.792;2023-08-06T01:52:17;4.03;;;2.03;;
44995;SDS011;30729;49.486;10.792;2023-08-06T01:54:42;6.32;;;2.22;;
44995;SDS011;30729;49.486;10.792;2023-08-06T01:57:08;3.63;;;2.15;;
44995;SDS011;30729;49.486;10.792;2023-08-06T01:59:33;4.68;;;1.98;;
44995;SDS011;30729;49.486;10.792;2023-08-06T02:01:58;3.22;;;1.77;;
44995;SDS011;30729;49.486;10.792;2023-08-06T02:04:23;3.90;;;1.80;;
44995;SDS011;30729;49.486;10.792;2023-08-06T02:06:48;3.58;;;2.00;;
44995;SDS011;30729;49.486;10.792;2023-08-06T02:09:14;3.45;;;1.70;;
44995;SDS011;30729;49.486;10.792;2023-08-06T02:11:39;5.25;;;2.10;;
44995;SDS011;30729;49.486;10.792;2023-08-06T02:14:04;3.93;;;1.90;;
44995;SDS011;30729;49.486;10.792;2023-08-06T02:16:29;5.22;;;2.10;;
44995;SDS011;30729;49.486;10.792;2023-08-06T02:18:54;4.63;;;2.05;;
44995;SDS011;30729;49.486;10.792;2023-08-06T02:21:19;3.83;;;1.70;;
44995;SDS011;30729;49.486;10.792;2023-08-06T02:23:44;4.43;;;2.13;;
44995;SDS011;30729;49.486;10.792;2023-08-06T02:26:10;5.65;;;2.17;;
44995;SDS011;30729;49.486;10.792;2023-08-06T02:28:35;4.17;;;2.10;;
44995;SDS011;30729;49.486;10.792;2023-08-06T02:31:00;3.70;;;2.03;;
44995;SDS011;30729;49.486;10.792;2023-08-06T02:33:25;3.83;;;1.90;;
44995;SDS011;30729;49.486;10.792;2023-08-06T02:35:50;4.45;;;2.25;;
44995;SDS011;30729;49.486;10.792;2023-08-06T02:38:15;5.33;;;2.40;;
44995;SDS011;30729;49.486;10.792;2023-08-06T02:40:44;5.07;;;2.08;;
44995;SDS011;30729;49.486;10.792;2023-08-06T02:43:10;5.68;;;2.33;;
44995;SDS011;30729;49.486;10.792;2023-08-06T02:45:35;3.97;;;2.10;;
44995;SDS011;30729;49.486;10.792;2023-08-06T02:48:00;4.18;;;1.83;;
44995;SDS011;30729;49.486;10.792;2023-08-06T02:50:27;6.03;;;2.13;;
44995;SDS011;30729;49.486;10.792;2023-08-06T02:52:52;4.07;;;2.00;;
44995;SDS011;30729;49.486;10.792;2023-08-06T02:55:17;6.32;;;2.53;;
44995;SDS011;30729;49.486;10.792;2023-08-06T02:57:42;3.33;;;1.98;;
44995;SDS011;30729;49.486;10.792;2023-08-06T03:00:07;5.57;;;2.15;;
44995;SDS011;30729;49.486;10.792;2023-08-06T03:02:33;3.70;;;1.83;;
44995;SDS011;30729;49.486;10.792;2023-08-06T03:04:58;3.10;;;1.85;;
44995;SDS011;30729;49.486;10.792;2023-08-06T03:07:23;5.43;;;2.33;;
44995;SDS011;30729;49.486;10.792;2023-08-06T03:09:48;5.32;;;1.83;;
44995;SDS011;30729;49.486;10.792;2023-08-06T03:12:13;3.67;;;1.90;;
44995;SDS011;30729;49.486;10.792;2023-08-06T03:14:38;4.57;;;2.17;;
44995;SDS011;30729;49.486;10.792;2023-08-06T03:17:04;5.27;;;2.30;;
44995;SDS011;30729;49.486;10.792;2023-08-06T03:19:29;6.20;;;2.50;;
44995;SDS011;30729;49.486;10.792;2023-08-06T03:21:54;3.08;;;1.83;;
44995;SDS011;30729;49.486;10.792;2023-08-06T03:24:19;4.22;;;1.80;;
44995;SDS011;30729;49.486;10.792;2023-08-06T03:26:44;4.40;;;1.85;;
44995;SDS011;30729;49.486;10.792;2023-08-06T03:29:10;2.72;;;1.60;;
44995;SDS011;30729;49.486;10.792;2023-08-06T03:31:35;7.83;;;1.90;;
44995;SDS011;30729;49.486;10.792;2023-08-06T03:34:00;3.92;;;2.22;;
44995;SDS011;30729;49.486;10.792;2023-08-06T03:36:25;3.53;;;1.67;;
44995;SDS011;30729;49.486;10.792;2023-08-06T03:38:50;3.90;;;1.77;;
44995;SDS011;30729;49.486;10.792;2023-08-06T03:41:15;3.72;;;1.98;;
44995;SDS011;30729;49.486;10.792;2023-08-06T03:43:40;4.63;;;2.03;;
44995;SDS011;30729;49.486;10.792;2023-08-06T03:46:06;5.22;;;2.08;;
44995;SDS011;30729;49.486;10.792;2023-08-06T03:48:31;4.68;;;1.95;;
44995;SDS011;30729;49.486;10.792;2023-08-06T03:50:56;5.70;;;2.13;;
44995;SDS011;30729;49.486;10.792;2023-08-06T03:53:22;3.88;;;1.90;;
44995;SDS011;30729;49.486;10.792;2023-08-06T03:55:47;3.75;;;2.13;;
44995;SDS011;30729;49.486;10.792;2023-08-06T03:58:12;3.67;;;1.80;;
44995;SDS011;30729;49.486;10.792;2023-08-06T04:00:37;3.60;;;2.00;;
44995;SDS011;30729;49.486;10.792;2023-08-06T04:03:02;5.68;;;2.40;;
44995;SDS011;30729;49.486;10.792;2023-08-06T04:05:27;3.63;;;1.80;;
44995;SDS011;30729;49.486;10.792;2023-08-06T04:07:55;4.75;;;1.95;;
44995;SDS011;30729;49.486;10.792;2023-08-06T04:10:20;4.43;;;2.10;;
44995;SDS011;30729;49.486;10.792;2023-08-06T04:12:46;5.53;;;2.10;;
44995;SDS011;30729;49.486;10.792;2023-08-06T04:15:11;5.63;;;2.13;;
44995;SDS011;30729;49.486;10.792;2023-08-06T04:17:36;3.75;;;2.28;;
44995;SDS011;30729;49.486;10.792;2023-08-06T04:20:01;5.05;;;2.22;;
44995;SDS011;30729;49.486;10.792;2023-08-06T04:22:27;6.50;;;2.35;;
44995;SDS011;30729;49.486;10.792;2023-08-06T04:24:52;3.20;;;1.90;;
44995;SDS011;30729;49.486;10.792;2023-08-06T04:27:18;5.20;;;2.40;;
44995;SDS011;30729;49.486;10.792;2023-08-06T04:29:43;5.00;;;2.38;;
44995;SDS011;30729;49.486;10.792;2023-08-06T04:32:09;3.70;;;1.95;;
44995;SDS011;30729;49.486;10.792;2023-08-06T04:34:35;5.25;;;2.10;;
44995;SDS011;30729;49.486;10.792;2023-08-06T04:37:00;4.25;;;2.15;;
44995;SDS011;30729;49.486;10.792;2023-08-06T04:39:26;4.07;;;2.10;;
44995;SDS011;30729;49.486;10.792;2023-08-06T04:41:51;4.13;;;1.93;;
44995;SDS011;30729;49.486;10.792;2023-08-06T04:44:16;3.20;;;1.70;;
44995;SDS011;30729;49.486;10.792;2023-08-06T04:46:41;5.78;;;2.38;;
44995;SDS011;30729;49.486;10.792;2023-08-06T04:49:07;4.47;;;2.23;;
44995;SDS011;30729;49.486;10.792;2023-08-06T04:51:32;4.70;;;2.08;;
44995;SDS011;30729;49.486;10.792;2023-08-06T04:53:57;4.93;;;2.23;;
44995;SDS011;30729;49.486;10.792;2023-08-06T04:56:22;3.92;;;2.00;;
44995;SDS011;30729;49.486;10.792;2023-08-06T04:58:48;3.20;;;1.77;;
44995;SDS011;30729;49.486;10.792;2023-08-06T05:01:13;4.10;;;2.40;;
44995;SDS011;30729;49.486;10.792;2023-08-06T05:03:38;3.38;;;1.67;;
44995;SDS011;30729;49.486;10.792;2023-08-06T05:06:03;5.80;;;2.00;;
44995;SDS011;30729;49.486;10.792;2023-08-06T05:08:28;6.30;;;2.28;;
44995;SDS011;30729;49.486;10.792;2023-08-06T05:10:53;3.70;;;2.05;;
44995;SDS011;30729;49.486;10.792;2023-08-06T05:13:19;6.88;;;2.42;;
44995;SDS011;30729;49.486;10.792;2023-08-06T05:15:44;4.47;;;2.30;;
44995;SDS011;30729;49.486;10.792;2023-08-06T05:18:11;4.45;;;2.28;;
44995;SDS011;30729;49.486;10.792;2023-08-06T05:20:37;4.22;;;2.15;;
44995;SDS011;30729;49.486;10.792;2023-08-06T05:23:02;4.90;;;2.53;;
44995;SDS011;30729;49.486;10.792;2023-08-06T05:25:27;4.67;;;2.13;;
44995;SDS011;30729;49.486;10.792;2023-08-06T05:27:53;7.27;;;2.10;;
44995;SDS011;30729;49.486;10.792;2023-08-06T05:30:18;4.60;;;2.42;;
44995;SDS011;30729;49.486;10.792;2023-08-06T05:32:43;5.03;;;2.60;;
44995;SDS011;30729;49.486;10.792;2023-08-06T05:35:08;4.50;;;2.40;;
44995;SDS011;30729;49.486;10.792;2023-08-06T05:37:33;5.78;;;2.72;;
44995;SDS011;30729;49.486;10.792;2023-08-06T05:39:59;5.00;;;2.55;;
44995;SDS011;30729;49.486;10.792;2023-08-06T05:42:24;5.85;;;2.60;;
44995;SDS011;30729;49.486;10.792;2023-08-06T05:44:49;5.38;;;2.75;;
44995;SDS011;30729;49.486;10.792;2023-08-06T05:47:14;5.55;;;2.85;;
44995;SDS011;30729;49.486;10.792;2023-08-06T05:49:39;6.72;;;3.50;;
44995;SDS011;30729;49.486;10.792;2023-08-06T05:52:04;5.80;;;2.92;;
44995;SDS011;30729;49.486;10.792;2023-08-06T05:54:31;5.82;;;2.80;;
44995;SDS011;30729;49.486;10.792;2023-08-06T05:56:56;6.57;;;3.42;;
44995;SDS011;30729;49.486;10.792;2023-08-06T05:59:21;6.50;;;2.83;;
44995;SDS011;30729;49.486;10.792;2023-08-06T06:01:46;7.03;;;3.00;;
44995;SDS011;30729;49.486;10.792;2023-08-06T06:04:12;6.60;;;2.90;;
44995;SDS011;30729;49.486;10.792;2023-08-06T06:06:37;5.85;;;3.25;;
44995;SDS011;30729;49.486;10.792;2023-08-06T06:09:02;5.93;;;3.17;;
44995;SDS011;30729;49.486;10.792;2023-08-06T06:11:27;6.45;;;3.28;;
44995;SDS011;30729;49.486;10.792;2023-08-06T06:13:52;5.97;;;3.10;;
44995;SDS011;30729;49.486;10.792;2023-08-06T06:16:18;6.22;;;3.25;;
44995;SDS011;30729;49.486;10.792;2023-08-06T06:18:43;6.45;;;3.42;;
44995;SDS011;30729;49.486;10.792;2023-08-06T06:21:09;5.97;;;3.47;;
44995;SDS011;30729;49.486;10.792;2023-08-06T06:23:34;7.00;;;3.25;;
44995;SDS011;30729;49.486;10.792;2023-08-06T06:25:59;5.30;;;3.30;;
44995;SDS011;30729;49.486;10.792;2023-08-06T06:28:24;5.20;;;2.75;;
44995;SDS011;30729;49.486;10.792;2023-08-06T06:30:51;5.50;;;2.90;;
44995;SDS011;30729;49.486;10.792;2023-08-06T06:33:16;6.57;;;3.15;;
44995;SDS011;30729;49.486;10.792;2023-08-06T06:35:41;5.63;;;3.17;;
44995;SDS011;30729;49.486;10.792;2023-08-06T06:38:06;5.30;;;3.00;;
44995;SDS011;30729;49.486;10.792;2023-08-06T06:40:31;5.43;;;3.00;;
44995;SDS011;30729;49.486;10.792;2023-08-06T06:42:57;9.23;;;3.40;;
44995;SDS011;30729;49.486;10.792;2023-08-06T06:45:23;6.28;;;3.03;;
44995;SDS011;30729;49.486;10.792;2023-08-06T06:47:48;6.43;;;2.80;;
44995;SDS011;30729;49.486;10.792;2023-08-06T06:50:13;5.63;;;2.67;;
44995;SDS011;30729;49.486;10.792;2023-08-06T06:52:38;8.75;;;3.20;;
44995;SDS011;30729;49.486;10.792;2023-08-06T06:55:04;5.63;;;2.88;;
44995;SDS011;30729;49.486;10.792;2023-08-06T06:57:29;8.43;;;3.10;;
44995;SDS011;30729;49.486;10.792;2023-08-06T06:59:54;6.90;;;3.30;;
44995;SDS011;30729;49.486;10.792;2023-08-06T07:02:19;6.07;;;3.27;;
44995;SDS011;30729;49.486;10.792;2023-08-06T07:04:44;6.07;;;3.20;;
44995;SDS011;30729;49.486;10.792;2023-08-06T07:07:10;8.70;;;3.08;;
44995;SDS011;30729;49.486;10.792;2023-08-06T07:09:35;5.55;;;2.78;;
44995;SDS011;30729;49.486;10.792;2023-08-06T07:12:00;9.52;;;3.05;;
44995;SDS011;30729;49.486;10.792;2023-08-06T07:14:26;4.57;;;2.40;;
44995;SDS011;30729;49.486;10.792;2023-08-06T07:16:51;6.00;;;2.20;;
44995;SDS011;30729;49.486;10.792;2023-08-06T07:19:16;4.72;;;2.38;;
44995;SDS011;30729;49.486;10.792;2023-08-06T07:21:42;6.27;;;2.50;;
44995;SDS011;30729;49.486;10.792;2023-08-06T07:24:07;5.22;;;2.03;;
44995;SDS011;30729;49.486;10.792;2023-08-06T07:26:32;5.05;;;2.03;;
44995;SDS011;30729;49.486;10.792;2023-08-06T07:28:57;4.57;;;2.05;;
44995;SDS011;30729;49.486;10.792;2023-08-06T07:31:22;5.85;;;2.05;;
44995;SDS011;30729;49.486;10.792;2023-08-06T07:33:47;5.23;;;2.00;;
44995;SDS011;30729;49.486;10.792;2023-08-06T07:36:13;4.10;;;1.60;;
44995;SDS011;30729;49.486;10.792;2023-08-06T07:38:38;4.72;;;1.60;;
44995;SDS011;30729;49.486;10.792;2023-08-06T07:41:04;5.78;;;1.20;;
44995;SDS011;30729;49.486;10.792;2023-08-06T07:43:29;2.55;;;1.00;;
44995;SDS011;30729;49.486;10.792;2023-08-06T07:45:57;2.50;;;1.15;;
44995;SDS011;30729;49.486;10.792;2023-08-06T07:48:22;1.35;;;0.90;;
44995;SDS011;30729;49.486;10.792;2023-08-06T07:50:50;3.57;;;0.80;;
44995;SDS011;30729;49.486;10.792;2023-08-06T07:53:18;0.82;;;0.60;;
44995;SDS011;30729;49.486;10.792;2023-08-06T07:55:43;0.77;;;0.77;;
44995;SDS011;30729;49.486;10.792;2023-08-06T07:58:08;1.70;;;0.80;;
44995;SDS011;30729;49.486;10.792;2023-08-06T08:00:33;1.27;;;0.47;;
44995;SDS011;30729;49.486;10.792;2023-08-06T08:02:58;1.05;;;0.60;;
44995;SDS011;30729;49.486;10.792;2023-08-06T08:05:23;0.22;;;0.22;;
44995;SDS011;30729;49.486;10.792;2023-08-06T08:07:49;0.43;;;0.40;;
44995;SDS011;30729;49.486;10.792;2023-08-06T08:10:14;3.27;;;0.40;;
44995;SDS011;30729;49.486;10.792;2023-08-06T08:12:39;0.30;;;0.30;;
44995;SDS011;30729;49.486;10.792;2023-08-06T08:15:04;1.70;;;0.57;;
44995;SDS011;30729;49.486;10.792;2023-08-06T08:17:29;1.30;;;0.30;;
44995;SDS011;30729;49.486;10.792;2023-08-06T08:19:55;1.63;;;0.40;;
44995;SDS011;30729;49.486;10.792;2023-08-06T08:22:20;0.47;;;0.30;;
44995;SDS011;30729;49.486;10.792;2023-08-06T08:24:45;2.53;;;0.30;;
44995;SDS011;30729;49.486;10.792;2023-08-06T08:27:10;0.30;;;0.30;;
44995;SDS011;30729;49.486;10.792;2023-08-06T08:29:35;1.50;;;0.50;;
44995;SDS011;30729;49.486;10.792;2023-08-06T08:32:00;2.10;;;0.80;;
44995;SDS011;30729;49.486;10.792;2023-08-06T08:34:26;0.73;;;0.30;;
44995;SDS011;30729;49.486;10.792;2023-08-06T08:36:51;0.40;;;0.27;;
44995;SDS011;30729;49.486;10.792;2023-08-06T08:39:16;0.38;;;0.32;;
44995;SDS011;30729;49.486;10.792;2023-08-06T08:41:41;0.67;;;0.40;;
44995;SDS011;30729;49.486;10.792;2023-08-06T08:44:07;1.42;;;0.57;;
44995;SDS011;30729;49.486;10.792;2023-08-06T08:46:33;1.02;;;0.63;;
44995;SDS011;30729;49.486;10.792;2023-08-06T08:49:00;1.25;;;0.70;;
44995;SDS011;30729;49.486;10.792;2023-08-06T08:51:27;1.27;;;0.38;;
44995;SDS011;30729;49.486;10.792;2023-08-06T08:53:52;0.40;;;0.40;;
44995;SDS011;30729;49.486;10.792;2023-08-06T08:56:18;0.40;;;0.30;;
44995;SDS011;30729;49.486;10.792;2023-08-06T08:58:44;0.60;;;0.40;;
44995;SDS011;30729;49.486;10.792;2023-08-06T09:01:09;1.02;;;0.50;;
44995;SDS011;30729;49.486;10.792;2023-08-06T09:03:34;1.98;;;0.40;;
44995;SDS011;30729;49.486;10.792;2023-08-06T09:06:01;0.73;;;0.40;;
44995;SDS011;30729;49.486;10.792;2023-08-06T09:08:27;1.05;;;0.60;;
44995;SDS011;30729;49.486;10.792;2023-08-06T09:10:53;1.13;;;0.50;;
44995;SDS011;30729;49.486;10.792;2023-08-06T09:13:19;2.33;;;0.73;;
44995;SDS011;30729;49.486;10.792;2023-08-06T09:15:46;0.60;;;0.47;;
44995;SDS011;30729;49.486;10.792;2023-08-06T09:18:11;2.03;;;0.52;;
44995;SDS011;30729;49.486;10.792;2023-08-06T09:20:40;0.80;;;0.30;;
44995;SDS011;30729;49.486;10.792;2023-08-06T09:23:08;0.22;;;0.22;;
44995;SDS011;30729;49.486;10.792;2023-08-06T09:25:36;1.30;;;0.47;;
44995;SDS011;30729;49.486;10.792;2023-08-06T09:28:01;1.15;;;0.30;;
44995;SDS011;30729;49.486;10.792;2023-08-06T09:30:31;1.85;;;0.40;;
44995;SDS011;30729;49.486;10.792;2023-08-06T09:32:56;0.85;;;0.50;;
44995;SDS011;30729;49.486;10.792;2023-08-06T09:35:21;0.20;;;0.20;;
44995;SDS011;30729;49.486;10.792;2023-08-06T09:37:47;1.27;;;0.43;;
44995;SDS011;30729;49.486;10.792;2023-08-06T09:40:24;2.55;;;0.40;;
44995;SDS011;30729;49.486;10.792;2023-08-06T09:42:49;0.52;;;0.30;;
44995;SDS011;30729;49.486;10.792;2023-08-06T09:45:15;0.40;;;0.30;;
44995;SDS011;30729;49.486;10.792;2023-08-06T09:47:41;0.30;;;0.30;;
44995;SDS011;30729;49.486;10.792;2023-08-06T09:50:06;0.30;;;0.30;;
44995;SDS011;30729;49.486;10.792;2023-08-06T09:52:39;0.60;;;0.50;;
44995;SDS011;30729;49.486;10.792;2023-08-06T09:55:04;0.35;;;0.30;;
44995;SDS011;30729;49.486;10.792;2023-08-06T09:57:30;0.88;;;0.43;;
44995;SDS011;30729;49.486;10.792;2023-08-06T09:59:55;0.73;;;0.40;;
44995;SDS011;30729;49.486;10.792;2023-08-06T10:02:20;0.20;;;0.20;;
44995;SDS011;30729;49.486;10.792;2023-08-06T10:04:49;0.32;;;0.30;;
44995;SDS011;30729;49.486;10.792;2023-08-06T10:07:14;1.70;;;0.30;;
44995;SDS011;30729;49.486;10.792;2023-08-06T10:09:39;0.10;;;0.10;;
44995;SDS011;30729;49.486;10.792;2023-08-06T10:12:04;0.20;;;0.20;;
44995;SDS011;30729;49.486;10.792;2023-08-06T10:14:33;0.30;;;0.20;;
44995;SDS011;30729;49.486;10.792;2023-08-06T10:16:59;2.22;;;0.52;;
44995;SDS011;30729;49.486;10.792;2023-08-06T10:19:25;0.93;;;0.63;;
44995;SDS011;30729;49.486;10.792;2023-08-06T10:22:10;0.20;;;0.20;;
44995;SDS011;30729;49.486;10.792;2023-08-06T10:27:19;0.30;;;0.30;;
44995;SDS011;30729;49.486;10.792;2023-08-06T10:29:44;0.98;;;0.30;;
44995;SDS011;30729;49.486;10.792;2023-08-06T10:32:10;0.40;;;0.30;;
44995;SDS011;30729;49.486;10.792;2023-08-06T10:37:19;0.20;;;0.20;;
44995;SDS011;30729;49.486;10.792;2023-08-06T10:39:49;0.30;;;0.30;;
44995;SDS011;30729;49.486;10.792;2023-08-06T10:42:22;1.27;;;0.40;;
44995;SDS011;30729;49.486;10.792;2023-08-06T10:47:38;0.20;;;0.20;;
44995;SDS011;30729;49.486;10.792;2023-08-06T10:50:04;1.45;;;0.30;;
44995;SDS011;30729;49.486;10.792;2023-08-06T10:52:30;0.40;;;0.30;;
44995;SDS011;30729;49.486;10.792;2023-08-06T10:54:55;0.20;;;0.20;;
44995;SDS011;30729;49.486;10.792;2023-08-06T10:57:20;0.90;;;0.20;;
44995;SDS011;30729;49.486;10.792;2023-08-06T10:59:45;0.27;;;0.27;;
44995;SDS011;30729;49.486;10.792;2023-08-06T11:02:10;0.38;;;0.20;;
44995;SDS011;30729;49.486;10.792;2023-08-06T11:04:35;1.85;;;0.22;;
44995;SDS011;30729;49.486;10.792;2023-08-06T11:07:01;0.20;;;0.20;;
44995;SDS011;30729;49.486;10.792;2023-08-06T11:09:26;0.20;;;0.20;;
44995;SDS011;30729;49.486;10.792;2023-08-06T11:11:51;0.52;;;0.25;;
44995;SDS011;30729;49.486;10.792;2023-08-06T11:14:16;0.67;;;0.67;;
44995;SDS011;30729;49.486;10.792;2023-08-06T11:16:42;0.50;;;0.30;;
44995;SDS011;30729;49.486;10.792;2023-08-06T11:19:07;0.22;;;0.22;;
44995;SDS011;30729;49.486;10.792;2023-08-06T11:21:33;0.50;;;0.38;;
44995;SDS011;30729;49.486;10.792;2023-08-06T11:23:58;1.40;;;0.40;;
44995;SDS011;30729;49.486;10.792;2023-08-06T11:26:23;0.40;;;0.40;;
44995;SDS011;30729;49.486;10.792;2023-08-06T11:28:49;0.90;;;0.40;;
44995;SDS011;30729;49.486;10.792;2023-08-06T11:31:23;0.52;;;0.32;;
44995;SDS011;30729;49.486;10.792;2023-08-06T11:33:52;0.30;;;0.30;;
44995;SDS011;30729;49.486;10.792;2023-08-06T11:36:17;1.27;;;0.50;;
44995;SDS011;30729;49.486;10.792;2023-08-06T11:38:53;0.30;;;0.30;;
44995;SDS011;30729;49.486;10.792;2023-08-06T11:41:18;0.68;;;0.40;;
44995;SDS011;30729;49.486;10.792;2023-08-06T11:43:45;0.60;;;0.30;;
44995;SDS011;30729;49.486;10.792;2023-08-06T11:46:10;1.48;;;0.30;;
44995;SDS011;30729;49.486;10.792;2023-08-06T11:48:50;0.20;;;0.20;;
44995;SDS011;30729;49.486;10.792;2023-08-06T11:51:15;0.20;;;0.20;;
44995;SDS011;30729;49.486;10.792;2023-08-06T11:53:40;0.28;;;0.22;;
44995;SDS011;30729;49.486;10.792;2023-08-06T11:56:06;0.20;;;0.20;;
44995;SDS011;30729;49.486;10.792;2023-08-06T11:58:31;0.10;;;0.10;;
44995;SDS011;30729;49.486;10.792;2023-08-06T12:00:56;0.60;;;0.60;;
44995;SDS011;30729;49.486;10.792;2023-08-06T12:03:23;0.32;;;0.30;;
44995;SDS011;30729;49.486;10.792;2023-08-06T12:05:53;0.20;;;0.20;;
44995;SDS011;30729;49.486;10.792;2023-08-06T12:08:18;0.32;;;0.32;;
44995;SDS011;30729;49.486;10.792;2023-08-06T12:10:43;0.43;;;0.38;;
44995;SDS011;30729;49.486;10.792;2023-08-06T12:13:09;0.32;;;0.25;;
44995;SDS011;30729;49.486;10.792;2023-08-06T12:15:34;0.35;;;0.35;;
44995;SDS011;30729;49.486;10.792;2023-08-06T12:17:59;1.70;;;0.50;;
44995;SDS011;30729;49.486;10.792;2023-08-06T12:20:25;0.50;;;0.30;;
44995;SDS011;30729;49.486;10.792;2023-08-06T12:22:50;0.85;;;0.85;;
44995;SDS011;30729;49.486;10.792;2023-08-06T12:25:15;0.30;;;0.30;;
44995;SDS011;30729;49.486;10.792;2023-08-06T12:27:41;0.40;;;0.20;;
44995;SDS011;30729;49.486;10.792;2023-08-06T12:30:07;0.20;;;0.20;;
44995;SDS011;30729;49.486;10.792;2023-08-06T12:32:33;0.45;;;0.45;;
44995;SDS011;30729;49.486;10.792;2023-08-06T12:34:58;0.20;;;0.20;;
44995;SDS011;30729;49.486;10.792;2023-08-06T12:37:26;0.75;;;0.30;;
44995;SDS011;30729;49.486;10.792;2023-08-06T12:39:51;0.30;;;0.30;;
44995;SDS011;30729;49.486;10.792;2023-08-06T12:42:17;0.20;;;0.20;;
44995;SDS011;30729;49.486;10.792;2023-08-06T12:44:42;2.72;;;0.20;;
44995;SDS011;30729;49.486;10.792;2023-08-06T12:47:07;0.10;;;0.10;;
44995;SDS011;30729;49.486;10.792;2023-08-06T12:49:33;0.20;;;0.20;;
44995;SDS011;30729;49.486;10.792;2023-08-06T12:51:58;0.22;;;0.22;;
44995;SDS011;30729;49.486;10.792;2023-08-06T12:54:25;0.20;;;0.20;;
44995;SDS011;30729;49.486;10.792;2023-08-06T12:56:50;0.55;;;0.30;;
44995;SDS011;30729;49.486;10.792;2023-08-06T12:59:16;0.20;;;0.20;;
44995;SDS011;30729;49.486;10.792;2023-08-06T13:01:41;0.22;;;0.22;;
44995;SDS011;30729;49.486;10.792;2023-08-06T13:04:07;0.40;;;0.28;;
44995;SDS011;30729;49.486;10.792;2023-08-06T13:06:32;1.93;;;0.20;;
44995;SDS011;30729;49.486;10.792;2023-08-06T13:09:08;0.40;;;0.40;;
44995;SDS011;30729;49.486;10.792;2023-08-06T13:11:34;0.73;;;0.52;;
44995;SDS011;30729;49.486;10.792;2023-08-06T13:14:03;0.20;;;0.20;;
44995;SDS011;30729;49.486;10.792;2023-08-06T13:16:29;0.25;;;0.25;;
44995;SDS011;30729;49.486;10.792;2023-08-06T13:18:54;0.98;;;0.22;;
44995;SDS011;30729;49.486;10.792;2023-08-06T13:21:19;0.40;;;0.40;;
44995;SDS011;30729;49.486;10.792;2023-08-06T13:23:44;0.10;;;0.10;;
44995;SDS011;30729;49.486;10.792;2023-08-06T13:26:09;0.30;;;0.30;;
44995;SDS011;30729;49.486;10.792;2023-08-06T13:28:35;0.20;;;0.20;;
44995;SDS011;30729;49.486;10.792;2023-08-06T13:31:01;0.15;;;0.15;;
44995;SDS011;30729;49.486;10.792;2023-08-06T13:33:26;0.85;;;0.68;;
44995;SDS011;30729;49.486;10.792;2023-08-06T13:35:51;1.55;;;0.32;;
44995;SDS011;30729;49.486;10.792;2023-08-06T13:38:17;0.20;;;0.20;;
44995;SDS011;30729;49.486;10.792;2023-08-06T13:40:42;0.22;;;0.20;;
44995;SDS011;30729;49.486;10.792;2023-08-06T13:43:09;0.10;;;0.10;;
44995;SDS011;30729;49.486;10.792;2023-08-06T13:45:34;0.30;;;0.20;;
44995;SDS011;30729;49.486;10.792;2023-08-06T13:48:00;1.02;;;0.75;;
44995;SDS011;30729;49.486;10.792;2023-08-06T13:50:25;2.60;;;0.30;;
44995;SDS011;30729;49.486;10.792;2023-08-06T13:52:51;0.32;;;0.20;;
44995;SDS011;30729;49.486;10.792;2023-08-06T13:55:18;0.68;;;0.30;;
44995;SDS011;30729;49.486;10.792;2023-08-06T13:57:43;0.20;;;0.20;;
44995;SDS011;30729;49.486;10.792;2023-08-06T14:00:08;0.20;;;0.20;;
44995;SDS011;30729;49.486;10.792;2023-08-06T14:02:33;0.20;;;0.20;;
44995;SDS011;30729;49.486;10.792;2023-08-06T14:04:59;0.32;;;0.28;;
44995;SDS011;30729;49.486;10.792;2023-08-06T14:07:24;1.10;;;0.20;;
44995;SDS011;30729;49.486;10.792;2023-08-06T14:09:49;0.90;;;0.37;;
44995;SDS011;30729;49.486;10.792;2023-08-06T14:12:14;0.73;;;0.40;;
44995;SDS011;30729;49.486;10.792;2023-08-06T14:14:39;0.50;;;0.30;;
44995;SDS011;30729;49.486;10.792;2023-08-06T14:17:04;0.30;;;0.30;;
44995;SDS011;30729;49.486;10.792;2023-08-06T14:19:30;0.38;;;0.28;;
44995;SDS011;30729;49.486;10.792;2023-08-06T14:21:55;0.22;;;0.20;;
44995;SDS011;30729;49.486;10.792;2023-08-06T14:24:20;0.43;;;0.20;;
44995;SDS011;30729;49.486;10.792;2023-08-06T14:26:45;0.15;;;0.15;;
44995;SDS011;30729;49.486;10.792;2023-08-06T14:29:11;0.43;;;0.20;;
44995;SDS011;30729;49.486;10.792;2023-08-06T14:31:36;0.50;;;0.38;;
44995;SDS011;30729;49.486;10.792;2023-08-06T14:34:01;0.38;;;0.30;;
44995;SDS011;30729;49.486;10.792;2023-08-06T14:36:27;0.40;;;0.23;;